»·PEaware :: N81041 KLGB-KSNA

N81041 :: KLGB-KSNA

FLIGHT INFORMATION

Flight Status: Arrived
Operator: Privately registered:
United States
More flights under this callsign
Pilot: John C. (12173)
Aircraft: GRUMMAN AERO AA5 CHEETAH TIGER
(AA5)
More flights by this aircraft type
Origin: KLGB Long Beach
United States
Destination: KSNA John Wayne-Orange Co
United States
More flights between these airports :: More routes between these airports
Route: SLI
File this flight plan on PilotEdge
Remarks:
Altitude:
(Current/Filed)
5,000ft
Speed:
(Current/Filed)
130kts
Departed: 24-May-20 08:39 AM
Arrived: 24-May-20 09:14 AM
Distance/Time
Traveled:
16nm/0:35
Distance/Time
To Go:
Arrived

Flight Plot

Page will automatically refresh every two minutes.


Map Options




Map Legend


Flown Route
Filed Route
Departure Airport
Arrival Airport
Navaid (VOR, NDB)
Fix

Horizontal Profiles

Position Reports

Time Latitude Longitude Heading Altitude Ground
Speed
24-May-20 08:25 33.812563 -118.153576 89 41ft 0kts
24-May-20 08:26 33.812563 -118.153576 89 41ft 0kts
24-May-20 08:27 33.812563 -118.153576 89 41ft 0kts
24-May-20 08:28 33.812563 -118.153576 89 41ft 0kts
24-May-20 08:29 33.812563 -118.153576 89 41ft 0kts
24-May-20 08:30 33.812563 -118.153576 89 41ft 0kts
24-May-20 08:31 33.812563 -118.153576 89 41ft 0kts
24-May-20 08:32 33.813068 -118.151409 79 38ft 15kts
24-May-20 08:33 33.812822 -118.147132 130 32ft 16kts
24-May-20 08:34 33.810113 -118.143713 134 28ft 17kts
24-May-20 08:35 33.807349 -118.140349 136 25ft 17kts
24-May-20 08:36 33.806500 -118.139228 107 25ft 0kts
24-May-20 08:37 33.806493 -118.139201 105 25ft 2kts
24-May-20 08:38 33.808580 -118.140208 312 25ft 61kts
24-May-20 08:39 33.821470 -118.157283 299 937ft 89kts
24-May-20 08:40 33.809975 -118.174581 206 1994ft 97kts
24-May-20 08:41 33.792488 -118.188514 215 3082ft 97kts
24-May-20 08:42 33.776415 -118.185053 80 3928ft 110kts
24-May-20 08:43 33.780358 -118.153456 81 3913ft 127kts
24-May-20 08:44 33.782061 -118.123406 94 3953ft 124kts
24-May-20 08:45 33.781943 -118.093769 90 4013ft 127kts
24-May-20 08:46 33.782841 -118.060897 94 4057ft 128kts
24-May-20 08:47 33.794130 -118.030223 59 4015ft 131kts
24-May-20 08:48 33.805849 -117.998173 62 3973ft 131kts
24-May-20 08:49 33.819998 -117.967555 61 3938ft 130kts
24-May-20 08:50 33.832818 -117.936049 65 3908ft 130kts
24-May-20 08:51 33.846029 -117.905140 60 3941ft 128kts
24-May-20 08:52 33.859291 -117.875015 64 3971ft 128kts
24-May-20 08:53 33.871578 -117.843739 62 4007ft 128kts
24-May-20 08:54 33.884473 -117.812754 66 4028ft 128kts
24-May-20 08:55 33.899187 -117.782648 63 4039ft 129kts
24-May-20 08:56 33.910709 -117.750878 64 4037ft 130kts
24-May-20 08:57 33.923195 -117.719515 61 4051ft 129kts
24-May-20 08:58 33.945218 -117.697186 31 4028ft 130kts
24-May-20 08:59 33.971213 -117.689478 317 4045ft 129kts
24-May-20 09:00 33.958123 -117.707508 161 3993ft 131kts
24-May-20 09:01 33.929941 -117.705929 201 4015ft 124kts
24-May-20 09:02 33.904029 -117.721052 210 3535ft 129kts
24-May-20 09:03 33.880037 -117.737139 206 3449ft 115kts
24-May-20 09:04 33.856962 -117.752105 207 3419ft 115kts
24-May-20 09:05 33.834596 -117.767589 210 3255ft 114kts
24-May-20 09:06 33.811595 -117.781596 208 2977ft 114kts
24-May-20 09:07 33.789138 -117.796541 208 2537ft 113kts
24-May-20 09:08 33.766876 -117.810947 203 2062ft 112kts
24-May-20 09:09 33.744623 -117.825308 212 1569ft 112kts
24-May-20 09:10 33.722199 -117.838560 204 1023ft 110kts
24-May-20 09:11 33.701001 -117.852595 207 527ft 103kts
24-May-20 09:13 33.684074 -117.863486 207 133ft 69kts
24-May-20 09:14 33.673738 -117.870086 208 48ft 36kts
24-May-20 09:15 33.670201 -117.873570 294 51ft 0kts
24-May-20 09:16 33.669629 -117.874355 276 51ft 10kts
24-May-20 09:17 33.669749 -117.874816 33 51ft 0kts
24-May-20 09:18 33.669749 -117.874816 33 51ft 0kts
24-May-20 09:19 33.669749 -117.874816 33 51ft 0kts

Navigation Log

Ident Type
Flight plan parsing failed, navigation log unavailable